createdAt,value
2023-05-08T00:03:24.497Z,77.93
2023-05-08T00:08:36.918Z,78.18
2023-05-08T00:13:41.389Z,78.34
2023-05-08T00:18:54.227Z,78.21
2023-05-08T00:24:02.563Z,78.49
2023-05-08T00:29:16.421Z,78.70
2023-05-08T00:34:19.100Z,78.85
2023-05-08T00:39:36.193Z,79.13
2023-05-08T00:44:40.218Z,79.45
2023-05-08T00:49:43.100Z,79.35
2023-05-08T00:54:57.926Z,79.54
2023-05-08T01:00:14.131Z,79.15
2023-05-08T01:05:30.120Z,78.93
2023-05-08T01:11:18.507Z,78.58
2023-05-08T01:16:54.268Z,78.31
2023-05-08T01:22:40.912Z,78.17
2023-05-08T01:28:23.682Z,77.82
2023-05-08T01:33:30.833Z,77.63
2023-05-08T01:38:47.827Z,77.64
2023-05-08T01:44:27.277Z,77.45
2023-05-08T01:49:46.831Z,77.22
2023-05-08T01:55:27.793Z,77.10
2023-05-08T02:00:43.946Z,76.99
2023-05-08T02:05:48.904Z,77.10
2023-05-08T02:10:55.169Z,76.79
2023-05-08T02:15:59.520Z,76.57
2023-05-08T02:21:09.662Z,76.39
2023-05-08T02:26:17.740Z,76.29
2023-05-08T02:31:25.228Z,76.06
2023-05-08T02:36:30.526Z,76.24
2023-05-08T02:41:40.173Z,76.37
2023-05-08T02:47:08.208Z,76.28
2023-05-08T02:52:17.594Z,76.30
2023-05-08T02:57:29.385Z,76.11
2023-05-08T03:02:40.351Z,76.41
2023-05-08T03:07:45.477Z,76.47
2023-05-08T03:12:54.454Z,76.34
2023-05-08T03:18:14.994Z,76.41
2023-05-08T03:23:22.087Z,76.41
2023-05-08T03:28:32.665Z,75.95
2023-05-08T03:33:49.192Z,75.75
2023-05-08T03:38:54.693Z,75.85
2023-05-08T03:44:05.746Z,75.95
2023-05-08T03:49:12.289Z,75.48
2023-05-08T03:54:15.488Z,75.21
2023-05-08T03:59:38.523Z,75.27
2023-05-08T04:04:44.495Z,74.94
2023-05-08T04:09:55.977Z,74.79
2023-05-08T04:15:17.886Z,75.01
2023-05-08T04:20:27.475Z,75.09
2023-05-08T04:25:43.093Z,74.51
2023-05-08T04:30:55.585Z,74.37
2023-05-08T04:36:07.193Z,74.26
2023-05-08T04:41:15.540Z,74.65
2023-05-08T04:46:24.537Z,74.57
2023-05-08T04:51:33.078Z,73.93
2023-05-08T04:56:36.190Z,73.40
2023-05-08T05:01:38.506Z,73.34
2023-05-08T05:07:00.326Z,72.46
2023-05-08T05:12:17.684Z,71.98
2023-05-08T05:17:24.352Z,71.84
2023-05-08T05:22:35.302Z,71.24
2023-05-08T05:27:43.047Z,71.15
2023-05-08T05:32:45.874Z,71.37
2023-05-08T05:37:49.420Z,71.10
2023-05-08T05:42:53.587Z,71.24
2023-05-08T05:47:56.431Z,70.50
2023-05-08T05:52:59.806Z,70.74
2023-05-08T05:58:02.550Z,70.40
2023-05-08T06:03:05.111Z,70.01
2023-05-08T06:08:09.520Z,69.53
2023-05-08T06:13:11.887Z,69.43
2023-05-08T06:18:19.875Z,69.31
2023-05-08T06:23:29.474Z,69.26
2023-05-08T06:28:42.312Z,68.98
2023-05-08T06:33:44.659Z,68.68
2023-05-08T06:38:47.304Z,68.64
2023-05-08T06:43:49.642Z,68.64
2023-05-08T06:48:51.811Z,68.43
2023-05-08T06:53:56.723Z,68.46
2023-05-08T06:59:08.902Z,67.79
2023-05-08T07:04:22.657Z,67.81
2023-05-08T07:09:39.416Z,67.31
2023-05-08T07:14:42.336Z,67.81
2023-05-08T07:19:51.341Z,67.14
2023-05-08T07:24:56.670Z,67.50
2023-05-08T07:30:04.373Z,66.93
2023-05-08T07:35:11.594Z,67.06
2023-05-08T07:40:14.352Z,66.57
2023-05-08T07:45:19.153Z,66.04
2023-05-08T07:50:26.601Z,65.31
2023-05-08T07:55:28.819Z,65.27
2023-05-08T08:00:34.023Z,65.51
2023-05-08T08:05:47.702Z,64.28
2023-05-08T08:10:50.717Z,63.85
2023-05-08T08:16:00.343Z,63.83
2023-05-08T08:21:06.735Z,63.49
2023-05-08T08:26:11.657Z,63.14
2023-05-08T08:31:16.730Z,63.55
2023-05-08T08:36:26.264Z,63.52
2023-05-08T08:41:33.837Z,63.10
2023-05-08T08:46:47.305Z,62.79
2023-05-08T08:52:07.070Z,62.77
2023-05-08T08:57:09.531Z,62.72
2023-05-08T09:02:17.671Z,61.84
2023-05-08T09:07:26.221Z,61.43
2023-05-08T09:12:31.051Z,60.64
2023-05-08T09:17:38.659Z,60.68
2023-05-08T09:23:06.967Z,60.00
2023-05-08T09:28:20.338Z,59.34
2023-05-08T09:33:39.632Z,59.04
2023-05-08T09:38:44.554Z,60.15
2023-05-08T09:44:03.081Z,59.75
2023-05-08T09:49:06.417Z,59.50
2023-05-08T09:54:18.082Z,59.20
2023-05-08T09:59:34.410Z,58.82
2023-05-08T10:04:42.884Z,58.38
2023-05-08T10:10:05.919Z,58.29
2023-05-08T10:15:11.150Z,57.74
2023-05-08T10:20:27.641Z,57.82
2023-05-08T10:25:37.162Z,57.92
2023-05-08T10:30:50.896Z,57.96
2023-05-08T10:36:01.395Z,57.52
2023-05-08T10:41:14.229Z,57.70
2023-05-08T10:46:35.280Z,56.82
2023-05-08T10:52:30.769Z,56.33
2023-05-08T10:57:33.575Z,55.43
2023-05-08T11:02:38.381Z,55.77
2023-05-08T11:08:18.073Z,56.32
2023-05-08T11:13:38.131Z,57.05
2023-05-08T11:19:17.153Z,57.29
2023-05-08T11:24:39.628Z,58.13
2023-05-08T11:29:45.053Z,57.04
2023-05-08T11:34:52.190Z,55.87
2023-05-08T11:39:54.573Z,55.21
2023-05-08T11:45:10.070Z,55.07
2023-05-08T11:50:18.002Z,55.25
2023-05-08T11:55:29.570Z,54.34
2023-05-08T12:00:41.186Z,53.74
2023-05-08T12:05:50.032Z,53.53
2023-05-08T12:10:54.331Z,53.63
2023-05-08T12:15:59.911Z,53.88
2023-05-08T12:21:21.398Z,53.42
2023-05-08T12:26:38.723Z,52.80
2023-05-08T12:31:47.215Z,53.02
2023-05-08T12:36:58.167Z,52.84
2023-05-08T12:42:01.293Z,52.75
2023-05-08T12:47:06.326Z,52.66
2023-05-08T12:52:12.808Z,52.92
2023-05-08T12:57:22.867Z,52.84
2023-05-08T13:02:27.582Z,52.76
2023-05-08T13:07:36.853Z,52.62
2023-05-08T13:12:39.103Z,52.58
2023-05-08T13:17:41.680Z,52.56
2023-05-08T13:22:44.966Z,52.87
2023-05-08T13:27:47.239Z,53.04
2023-05-08T13:32:53.777Z,53.09
2023-05-08T13:37:57.677Z,53.15
2023-05-08T13:43:03.160Z,53.93
2023-05-08T13:48:06.224Z,54.30
2023-05-08T13:53:11.464Z,53.77
2023-05-08T13:58:21.355Z,53.80
2023-05-08T14:03:24.299Z,53.35
2023-05-08T14:08:34.978Z,52.62
2023-05-08T14:13:43.285Z,53.03
2023-05-08T14:18:51.837Z,53.18
2023-05-08T14:24:01.687Z,52.77
2023-05-08T14:29:05.443Z,52.54
2023-05-08T14:34:11.369Z,52.98
2023-05-08T14:39:18.961Z,52.05
2023-05-08T14:44:24.696Z,52.71
2023-05-08T14:54:53.900Z,51.90
2023-05-08T15:00:28.691Z,52.11
2023-05-08T15:06:07.727Z,52.18
2023-05-08T15:11:34.528Z,52.37
2023-05-08T15:16:46.774Z,52.54
2023-05-08T15:21:51.529Z,52.19
2023-05-08T15:26:57.070Z,52.00
2023-05-08T15:32:09.568Z,51.56
2023-05-08T15:37:12.208Z,51.89
2023-05-08T15:42:21.873Z,51.92
2023-05-08T15:47:28.158Z,51.71
2023-05-08T15:52:33.773Z,50.69
2023-05-08T15:57:36.939Z,50.92
2023-05-08T16:02:39.184Z,51.02
2023-05-08T16:07:54.464Z,51.07
2023-05-08T16:12:59.170Z,51.73
2023-05-08T16:18:08.216Z,51.85
2023-05-08T16:23:10.724Z,51.79
2023-05-08T16:28:15.989Z,52.09
2023-05-08T16:33:23.239Z,52.28
2023-05-08T16:38:33.750Z,52.34
2023-05-08T16:43:35.818Z,52.64
2023-05-08T16:48:38.413Z,52.55
2023-05-08T16:53:41.048Z,53.40
2023-05-08T16:58:43.750Z,53.69
2023-05-08T17:03:46.160Z,53.65
2023-05-08T17:08:49.149Z,54.05
2023-05-08T17:13:51.492Z,54.48
2023-05-08T17:18:54.455Z,54.70
2023-05-08T17:23:56.668Z,55.19
2023-05-08T17:28:59.763Z,55.35
2023-05-08T17:34:02.170Z,55.83
2023-05-08T17:39:10.076Z,55.99
2023-05-08T17:44:12.213Z,56.24
2023-05-08T17:49:15.875Z,56.36
2023-05-08T17:54:19.606Z,56.59
2023-05-08T17:59:21.863Z,56.90
2023-05-08T18:04:24.102Z,57.16
2023-05-08T18:09:26.140Z,57.68
2023-05-08T18:14:32.089Z,58.38
2023-05-08T18:19:36.433Z,58.78
2023-05-08T18:24:41.061Z,59.47
2023-05-08T18:29:43.538Z,59.41
2023-05-08T18:34:46.320Z,60.64
2023-05-08T18:39:51.676Z,60.82
2023-05-08T18:44:57.111Z,61.49
2023-05-08T18:50:00.698Z,61.72
2023-05-08T18:55:13.185Z,62.38
2023-05-08T19:00:19.894Z,62.43
2023-05-08T19:05:22.696Z,63.15
2023-05-08T19:10:25.658Z,63.46
2023-05-08T19:15:28.532Z,63.89
2023-05-08T19:20:32.094Z,64.38
2023-05-08T19:25:34.379Z,64.41
2023-05-08T19:30:36.597Z,65.04
2023-05-08T19:35:39.548Z,65.37
2023-05-08T19:40:55.721Z,65.24
2023-05-08T19:46:00.245Z,65.77
2023-05-08T19:51:10.112Z,66.24
2023-05-08T19:56:13.177Z,66.62
2023-05-08T20:01:17.515Z,66.54
2023-05-08T20:06:19.757Z,66.82
2023-05-08T20:11:22.804Z,67.35
2023-05-08T20:16:30.902Z,67.56
2023-05-08T20:21:33.997Z,67.68
2023-05-08T20:26:38.772Z,67.81
2023-05-08T20:31:44.337Z,68.08
2023-05-08T20:36:49.313Z,68.33
2023-05-08T20:41:51.856Z,68.45
2023-05-08T20:46:54.339Z,68.82
2023-05-08T20:52:00.025Z,69.09
2023-05-08T20:57:04.804Z,69.22
2023-05-08T21:02:11.169Z,69.57
2023-05-08T21:07:21.129Z,69.74
2023-05-08T21:12:32.418Z,69.96
2023-05-08T21:17:36.231Z,70.09
2023-05-08T21:22:47.613Z,70.52
2023-05-08T21:28:04.852Z,70.73
2023-05-08T21:33:10.168Z,71.05
2023-05-08T21:38:48.254Z,71.57
2023-05-08T21:44:00.674Z,71.86
2023-05-08T21:49:06.418Z,71.80
2023-05-08T21:54:09.555Z,71.86
2023-05-08T21:59:14.660Z,71.92
2023-05-08T22:04:29.341Z,72.29
2023-05-08T22:09:36.947Z,72.55
2023-05-08T22:14:45.367Z,72.64
2023-05-08T22:19:52.764Z,72.77
2023-05-08T22:25:17.137Z,72.79
2023-05-08T22:30:28.684Z,73.24
2023-05-08T22:35:37.187Z,73.36
2023-05-08T22:40:49.866Z,73.49
2023-05-08T22:45:52.678Z,73.57
2023-05-08T22:51:00.521Z,73.68
2023-05-08T22:56:06.089Z,73.79
2023-05-08T23:01:08.731Z,73.77
2023-05-08T23:06:16.165Z,74.02
2023-05-08T23:11:22.445Z,74.11
2023-05-08T23:16:40.331Z,74.08
2023-05-08T23:21:42.472Z,74.09
2023-05-08T23:26:52.506Z,74.28
2023-05-08T23:32:02.161Z,74.48
2023-05-08T23:37:07.406Z,74.57
2023-05-08T23:42:10.084Z,74.86
2023-05-08T23:47:27.290Z,74.93
2023-05-08T23:52:29.734Z,74.88
2023-05-08T23:57:42.575Z,75.24
